Wetterdaten: aktuell Montag, 22.07.2019 01:24
Datum Zeit Temp. A. Feuchte A. Luftdruck Regen Wind Richtung Richtung Windben
22.07.2019 01:24 17,5 C 81 % 1022,6 hPa 0,0 l/m 0,0 km/h N-NW 329 0,0 km/h
22.07.2019 01:20 17,4 C 81 % 1022,5 hPa 0,0 l/m 0,0 km/h N-NW 329 0,0 km/h
22.07.2019 01:15 17,4 C 81 % 1022,6 hPa 0,0 l/m 0,0 km/h N-NW 329 0,0 km/h
22.07.2019 01:10 17,4 C 81 % 1022,5 hPa 0,0 l/m 0,0 km/h N-NW 329 0,0 km/h
22.07.2019 01:05 17,4 C 81 % 1022,5 hPa 0,0 l/m 0,0 km/h N-NW 329 0,0 km/h
22.07.2019 01:00 17,3 C 81 % 1022,5 hPa 0,0 l/m 0,0 km/h N 354 0,0 km/h
22.07.2019 00:59 17,3 C 81 % 1022,5 hPa 0,0 l/m 0,0 km/h N 354 0,0 km/h
22.07.2019 00:55 17,3 C 81 % 1022,6 hPa 0,0 l/m 0,0 km/h N 7 0,0 km/h
22.07.2019 00:50 17,3 C 81 % 1022,6 hPa 0,0 l/m 0,0 km/h N-NW 333 0,0 km/h
22.07.2019 00:45 17,2 C 81 % 1022,5 hPa 0,0 l/m 0,0 km/h N 7 0,0 km/h
22.07.2019 00:44 17,2 C 81 % 1022,5 hPa 0,0 l/m 0,0 km/h N 7 0,0 km/h
22.07.2019 00:40 17,1 C 82 % 1022,7 hPa 0,0 l/m 0,1 km/h N 350 4,8 km/h
22.07.2019 00:35 17,1 C 82 % 1022,6 hPa 0,0 l/m 0,0 km/h N 360 0,0 km/h
22.07.2019 00:34 17,1 C 82 % 1022,6 hPa 0,0 l/m 0,0 km/h N 359 3,2 km/h
22.07.2019 00:30 17,3 C 82 % 1022,6 hPa 0,0 l/m 0,0 km/h N 7 0,0 km/h
22.07.2019 00:24 17,3 C 82 % 1022,6 hPa 0,0 l/m 0,0 km/h N 353 0,0 km/h
22.07.2019 00:20 17,5 C 82 % 1022,6 hPa 0,0 l/m 0,0 km/h N 357 0,0 km/h
22.07.2019 00:15 17,5 C 82 % 1022,6 hPa 0,0 l/m 0,0 km/h N 3 0,0 km/h
22.07.2019 00:14 17,5 C 82 % 1022,7 hPa 0,0 l/m 0,0 km/h N 3 0,0 km/h
22.07.2019 00:09 17,6 C 82 % 1022,7 hPa 0,0 l/m 0,0 km/h N-NW 333 0,0 km/h
22.07.2019 00:05 17,7 C 82 % 1022,6 hPa 0,0 l/m 0,0 km/h N-NW 347 0,0 km/h
22.07.2019 00:00 17,8 C 82 % 1022,5 hPa 0,0 l/m 0,0 km/h N-NW 347 0,0 km/h
21.07.2019 23:55 17,7 C 82 % 1022,5 hPa 0,0 l/m 0,0 km/h N-NW 347 0,0 km/h
21.07.2019 23:54 17,7 C 82 % 1022,5 hPa 0,0 l/m 0,0 km/h N-NW 347 0,0 km/h
21.07.2019 23:50 17,7 C 82 % 1022,4 hPa 0,0 l/m 0,0 km/h N-NW 347 1,6 km/h
21.07.2019 23:45 17,7 C 82 % 1022,3 hPa 0,0 l/m 0,0 km/h N-NW 344 0,0 km/h
21.07.2019 23:44 17,7 C 82 % 1022,3 hPa 0,0 l/m 0,0 km/h N-NW 344 0,0 km/h
21.07.2019 23:40 17,7 C 82 % 1022,2 hPa 0,0 l/m 0,0 km/h N 355 0,0 km/h
21.07.2019 23:35 17,7 C 82 % 1022,2 hPa 0,0 l/m 0,0 km/h N 349 0,0 km/h
21.07.2019 23:30 17,7 C 82 % 1022,1 hPa 0,0 l/m 0,0 km/h N-NW 348 0,0 km/h
21.07.2019 23:25 17,9 C 82 % 1022,1 hPa 0,0 l/m 0,0 km/h N-NW 345 0,0 km/h
21.07.2019 23:24 17,9 C 82 % 1022,1 hPa 0,0 l/m 0,0 km/h N 353 0,0 km/h
21.07.2019 23:20 18,3 C 82 % 1022,1 hPa 0,0 l/m 0,0 km/h N 7 0,0 km/h
21.07.2019 23:19 18,3 C 82 % 1022,1 hPa 0,0 l/m 0,0 km/h N 7 0,0 km/h
21.07.2019 23:15 18,3 C 82 % 1022,1 hPa 0,0 l/m 0,0 km/h N 7 0,0 km/h
21.07.2019 23:10 18,3 C 82 % 1022,1 hPa 0,0 l/m 0,0 km/h N 7 0,0 km/h
21.07.2019 23:04 18,2 C 82 % 1022,0 hPa 0,0 l/m 0,0 km/h N 7 0,0 km/h
21.07.2019 22:59 18,3 C 82 % 1021,9 hPa 0,0 l/m 0,0 km/h N 7 0,0 km/h
21.07.2019 22:54 18,4 C 82 % 1021,8 hPa 0,0 l/m 0,0 km/h N-NO 12 0,0 km/h
21.07.2019 22:50 18,6 C 82 % 1021,7 hPa 0,0 l/m 0,0 km/h N-NO 12 0,0 km/h
21.07.2019 22:45 18,6 C 82 % 1021,8 hPa 0,0 l/m 0,0 km/h N-NO 12 0,0 km/h
21.07.2019 22:40 18,5 C 82 % 1021,7 hPa 0,0 l/m 0,0 km/h N-NO 12 0,0 km/h
21.07.2019 22:39 18,5 C 82 % 1021,7 hPa 0,0 l/m 0,0 km/h N-NO 12 0,0 km/h
21.07.2019 22:34 18,4 C 82 % 1021,7 hPa 0,0 l/m 0,0 km/h N-NO 12 0,0 km/h
21.07.2019 22:30 18,3 C 82 % 1021,6 hPa 0,0 l/m 0,0 km/h N-NO 12 3,2 km/h
21.07.2019 22:25 18,3 C 82 % 1021,7 hPa 0,0 l/m 0,0 km/h N-NO 12 0,0 km/h
21.07.2019 22:20 18,4 C 82 % 1021,6 hPa 0,0 l/m 0,0 km/h N-NO 12 0,0 km/h
21.07.2019 22:19 18,4 C 82 % 1021,7 hPa 0,0 l/m 0,0 km/h N 7 0,0 km/h
21.07.2019 22:15 18,5 C 82 % 1021,7 hPa 0,0 l/m 0,5 km/h N 357 9,7 km/h
21.07.2019 22:10 18,6 C 81 % 1021,7 hPa 0,0 l/m 0,0 km/h N 358 0,0 km/h
21.07.2019 22:05 18,7 C 82 % 1021,7 hPa 0,0 l/m 0,0 km/h N-NO 12 0,0 km/h
21.07.2019 22:00 18,8 C 82 % 1021,7 hPa 0,0 l/m 0,0 km/h N-NW 342 0,0 km/h
21.07.2019 21:59 18,8 C 82 % 1021,7 hPa 0,0 l/m 0,4 km/h N-NW 341 8,0 km/h
21.07.2019 21:55 18,9 C 81 % 1021,8 hPa 0,0 l/m 0,0 km/h N 358 0,0 km/h
21.07.2019 21:50 19,1 C 82 % 1021,8 hPa 0,0 l/m 0,0 km/h N 351 0,0 km/h
21.07.2019 21:45 19,5 C 81 % 1021,7 hPa 0,0 l/m 0,0 km/h N 354 0,0 km/h
21.07.2019 21:40 19,9 C 82 % 1021,6 hPa 0,0 l/m 0,0 km/h N 354 0,0 km/h
21.07.2019 21:35 20,2 C 81 % 1021,6 hPa 0,0 l/m 0,0 km/h N 354 0,0 km/h
21.07.2019 21:30 20,4 C 81 % 1021,6 hPa 0,0 l/m 0,0 km/h N 354 0,0 km/h
21.07.2019 21:25 20,5 C 81 % 1021,5 hPa 0,0 l/m 0,0 km/h N 354 0,0 km/h
21.07.2019 21:24 20,5 C 81 % 1021,5 hPa 0,0 l/m 0,0 km/h N 354 0,0 km/h
21.07.2019 21:20 20,6 C 80 % 1021,5 hPa 0,0 l/m 0,0 km/h N 354 0,0 km/h
21.07.2019 21:15 20,5 C 80 % 1021,4 hPa 0,0 l/m 0,0 km/h N 354 0,0 km/h
21.07.2019 21:10 20,4 C 80 % 1021,3 hPa 0,0 l/m 0,0 km/h N 354 0,0 km/h
21.07.2019 21:04 20,5 C 80 % 1021,2 hPa 0,0 l/m 0,0 km/h N 354 0,0 km/h
21.07.2019 21:00 20,6 C 80 % 1021,0 hPa 0,0 l/m 0,0 km/h N 350 0,0 km/h
21.07.2019 20:55 20,5 C 81 % 1020,9 hPa 0,0 l/m 0,0 km/h N 349 0,0 km/h
21.07.2019 20:49 20,4 C 81 % 1020,8 hPa 0,0 l/m 0,0 km/h N-NO 17 3,2 km/h
21.07.2019 20:44 20,4 C 81 % 1020,7 hPa 0,0 l/m 0,0 km/h N-NO 12 0,0 km/h
21.07.2019 20:40 20,4 C 81 % 1020,6 hPa 0,0 l/m 0,0 km/h N 7 0,0 km/h
21.07.2019 20:35 20,7 C 81 % 1020,5 hPa 0,0 l/m 0,1 km/h N-NO 12 4,8 km/h
21.07.2019 20:30 20,8 C 81 % 1020,5 hPa 0,0 l/m 0,0 km/h N 357 0,0 km/h
21.07.2019 20:29 20,9 C 81 % 1020,6 hPa 0,0 l/m 0,0 km/h N 357 0,0 km/h
21.07.2019 20:25 20,9 C 81 % 1020,5 hPa 0,0 l/m 0,0 km/h N 360 0,0 km/h
21.07.2019 20:24 20,9 C 81 % 1020,5 hPa 0,0 l/m 0,0 km/h N 359 0,0 km/h
21.07.2019 20:20 21,2 C 81 % 1020,5 hPa 0,0 l/m 0,0 km/h N 356 0,0 km/h
21.07.2019 20:15 21,3 C 81 % 1020,6 hPa 0,0 l/m 0,0 km/h N 356 0,0 km/h
21.07.2019 20:10 21,4 C 81 % 1020,4 hPa 0,0 l/m 0,0 km/h N-NW 339 0,0 km/h
21.07.2019 20:04 21,4 C 81 % 1020,5 hPa 0,0 l/m 0,0 km/h N-NW 339 0,0 km/h
21.07.2019 20:00 21,4 C 81 % 1020,5 hPa 0,0 l/m 0,0 km/h N-NW 335 0,0 km/h
21.07.2019 19:55 21,6 C 81 % 1020,4 hPa 0,0 l/m 0,0 km/h N-NW 333 0,0 km/h
21.07.2019 19:50 21,6 C 81 % 1020,4 hPa 0,0 l/m 0,0 km/h N-NO 12 0,0 km/h
21.07.2019 19:45 21,7 C 80 % 1020,5 hPa 0,0 l/m 0,0 km/h N-NO 12 0,0 km/h
21.07.2019 19:40 21,8 C 80 % 1020,6 hPa 0,0 l/m 0,0 km/h O 81 0,0 km/h
21.07.2019 19:35 22,0 C 80 % 1020,5 hPa 0,0 l/m 0,0 km/h O 81 0,0 km/h
21.07.2019 19:29 22,1 C 80 % 1020,6 hPa 0,0 l/m 0,0 km/h SO 135 0,0 km/h
21.07.2019 19:25 22,3 C 80 % 1020,5 hPa 0,0 l/m 0,0 km/h SO 135 0,0 km/h
21.07.2019 19:20 22,4 C 80 % 1020,5 hPa 0,0 l/m 0,0 km/h SO 135 0,0 km/h
21.07.2019 19:14 22,3 C 80 % 1020,5 hPa 0,0 l/m 0,0 km/h SO 135 0,0 km/h
21.07.2019 19:10 22,4 C 79 % 1020,4 hPa 0,0 l/m 0,0 km/h SO 135 0,0 km/h
21.07.2019 19:05 22,5 C 79 % 1020,3 hPa 0,0 l/m 0,0 km/h SO 135 0,0 km/h
21.07.2019 19:00 22,6 C 79 % 1020,4 hPa 0,0 l/m 0,0 km/h SO 135 0,0 km/h
21.07.2019 18:55 22,8 C 79 % 1020,4 hPa 0,0 l/m 0,0 km/h N 358 0,0 km/h
21.07.2019 18:54 22,8 C 80 % 1020,3 hPa 0,0 l/m 0,0 km/h N 358 0,0 km/h
21.07.2019 18:50 22,8 C 80 % 1020,3 hPa 0,0 l/m 0,0 km/h N 358 0,0 km/h
21.07.2019 18:45 22,9 C 80 % 1020,3 hPa 0,0 l/m 0,0 km/h N 350 0,0 km/h
21.07.2019 18:40 23,2 C 80 % 1020,3 hPa 0,0 l/m 0,0 km/h N-NW 340 0,0 km/h
_ Min-Zeit 00:34 12:10 04:54 - 02:00 - - 02:00
Minimum _ 17,1 C 44 % 1015,2 hPa - 0,0 km/h - - 0,0 km/h
_ Max-Zeit 11:00 21:40 00:09 16:14 15:25 - - 15:09
Maximum _ 29,3 C 82 % 1022,7 hPa 1,0 l/m 28,0 km/h
N
- - 37,0 km/h
N
Durchschnitt _ 22,4 C 72 % 1018,5 hPa #1,8 l/m 2,9 km/h N - 5,0 km/h